sensor_id;sensor_type;location;lat;lon;timestamp;pressure;altitude;pressure_sealevel;temperature;humidity
32330;BME280;18807;52.434;13.238;2023-01-19T00:03:38;99873.56;;;-1.17;100.00
32330;BME280;18807;52.434;13.238;2023-01-19T00:11:14;99896.72;;;-1.26;100.00
32330;BME280;18807;52.434;13.238;2023-01-19T00:18:49;99907.81;;;-1.31;100.00
32330;BME280;18807;52.434;13.238;2023-01-19T00:26:25;99916.19;;;-1.38;100.00
32330;BME280;18807;52.434;13.238;2023-01-19T00:33:59;99915.91;;;-1.44;100.00
32330;BME280;18807;52.434;13.238;2023-01-19T00:41:34;99927.94;;;-1.48;100.00
32330;BME280;18807;52.434;13.238;2023-01-19T00:49:26;99927.78;;;-1.51;100.00
32330;BME280;18807;52.434;13.238;2023-01-19T00:57:01;99927.88;;;-1.49;100.00
32330;BME280;18807;52.434;13.238;2023-01-19T01:04:35;99940.00;;;-1.51;100.00
32330;BME280;18807;52.434;13.238;2023-01-19T01:12:10;99926.63;;;-1.57;100.00
32330;BME280;18807;52.434;13.238;2023-01-19T01:19:45;99934.97;;;-1.64;100.00
32330;BME280;18807;52.434;13.238;2023-01-19T01:27:21;99938.25;;;-1.68;100.00
32330;BME280;18807;52.434;13.238;2023-01-19T01:34:55;99946.94;;;-1.69;100.00
32330;BME280;18807;52.434;13.238;2023-01-19T01:42:30;99951.94;;;-1.74;100.00
32330;BME280;18807;52.434;13.238;2023-01-19T01:50:08;99958.75;;;-1.77;100.00
32330;BME280;18807;52.434;13.238;2023-01-19T01:57:49;99948.34;;;-1.76;100.00
32330;BME280;18807;52.434;13.238;2023-01-19T02:05:26;99949.63;;;-1.85;100.00
32330;BME280;18807;52.434;13.238;2023-01-19T02:13:04;99957.56;;;-2.00;100.00
32330;BME280;18807;52.434;13.238;2023-01-19T02:20:58;99949.66;;;-2.02;100.00
32330;BME280;18807;52.434;13.238;2023-01-19T02:28:40;99950.47;;;-2.03;100.00
32330;BME280;18807;52.434;13.238;2023-01-19T02:36:17;99950.47;;;-2.03;100.00
32330;BME280;18807;52.434;13.238;2023-01-19T02:43:56;99934.47;;;-2.09;100.00
32330;BME280;18807;52.434;13.238;2023-01-19T02:51:31;99945.66;;;-2.29;100.00
32330;BME280;18807;52.434;13.238;2023-01-19T02:59:13;99941.31;;;-2.28;100.00
32330;BME280;18807;52.434;13.238;2023-01-19T03:06:51;99938.94;;;-2.24;100.00
32330;BME280;18807;52.434;13.238;2023-01-19T03:14:31;99947.00;;;-2.19;100.00
32330;BME280;18807;52.434;13.238;2023-01-19T03:22:10;99944.47;;;-2.18;100.00
32330;BME280;18807;52.434;13.238;2023-01-19T03:29:51;99955.09;;;-2.15;100.00
32330;BME280;18807;52.434;13.238;2023-01-19T03:37:26;99956.78;;;-2.15;100.00
32330;BME280;18807;52.434;13.238;2023-01-19T03:45:04;99952.59;;;-2.29;100.00
32330;BME280;18807;52.434;13.238;2023-01-19T03:52:38;99962.66;;;-2.37;100.00
32330;BME280;18807;52.434;13.238;2023-01-19T04:00:14;99954.13;;;-2.33;100.00
32330;BME280;18807;52.434;13.238;2023-01-19T04:07:48;99955.03;;;-2.32;100.00
32330;BME280;18807;52.434;13.238;2023-01-19T04:15:24;99958.66;;;-2.30;100.00
32330;BME280;18807;52.434;13.238;2023-01-19T04:22:59;99947.03;;;-2.35;100.00
32330;BME280;18807;52.434;13.238;2023-01-19T04:30:35;99964.34;;;-2.37;100.00
32330;BME280;18807;52.434;13.238;2023-01-19T04:38:09;99969.97;;;-2.30;100.00
32330;BME280;18807;52.434;13.238;2023-01-19T04:45:44;99975.03;;;-2.33;100.00
32330;BME280;18807;52.434;13.238;2023-01-19T04:53:18;99965.25;;;-2.37;100.00
32330;BME280;18807;52.434;13.238;2023-01-19T05:00:53;99953.81;;;-2.39;100.00
32330;BME280;18807;52.434;13.238;2023-01-19T05:08:27;99982.00;;;-2.33;100.00
32330;BME280;18807;52.434;13.238;2023-01-19T05:16:02;99970.31;;;-2.40;100.00
32330;BME280;18807;52.434;13.238;2023-01-19T05:23:37;99967.22;;;-2.49;100.00
32330;BME280;18807;52.434;13.238;2023-01-19T05:31:13;99973.53;;;-2.45;100.00
32330;BME280;18807;52.434;13.238;2023-01-19T05:38:51;99979.25;;;-2.36;100.00
32330;BME280;18807;52.434;13.238;2023-01-19T05:46:27;99998.75;;;-2.30;100.00
32330;BME280;18807;52.434;13.238;2023-01-19T05:54:01;99997.19;;;-2.26;100.00
32330;BME280;18807;52.434;13.238;2023-01-19T06:01:36;100006.00;;;-2.40;100.00
32330;BME280;18807;52.434;13.238;2023-01-19T06:09:11;100023.03;;;-2.48;100.00
32330;BME280;18807;52.434;13.238;2023-01-19T06:16:47;100024.63;;;-2.50;100.00
32330;BME280;18807;52.434;13.238;2023-01-19T06:24:21;100021.53;;;-2.59;100.00
32330;BME280;18807;52.434;13.238;2023-01-19T06:31:58;100030.38;;;-2.57;100.00
32330;BME280;18807;52.434;13.238;2023-01-19T06:39:32;100039.34;;;-2.52;100.00
32330;BME280;18807;52.434;13.238;2023-01-19T06:47:07;100036.34;;;-2.60;100.00
32330;BME280;18807;52.434;13.238;2023-01-19T06:54:47;100029.63;;;-2.55;100.00
32330;BME280;18807;52.434;13.238;2023-01-19T07:02:22;100039.03;;;-2.42;100.00
32330;BME280;18807;52.434;13.238;2023-01-19T07:09:59;100041.91;;;-2.38;100.00
32330;BME280;18807;52.434;13.238;2023-01-19T07:17:34;100048.09;;;-2.36;100.00
32330;BME280;18807;52.434;13.238;2023-01-19T07:25:09;100048.00;;;-2.37;100.00
32330;BME280;18807;52.434;13.238;2023-01-19T07:32:44;100068.59;;;-2.43;100.00
32330;BME280;18807;52.434;13.238;2023-01-19T07:40:18;100078.50;;;-2.38;100.00
32330;BME280;18807;52.434;13.238;2023-01-19T07:47:56;100075.31;;;-2.32;100.00
32330;BME280;18807;52.434;13.238;2023-01-19T07:55:30;100072.94;;;-2.28;100.00
32330;BME280;18807;52.434;13.238;2023-01-19T08:03:05;100085.84;;;-2.31;100.00
32330;BME280;18807;52.434;13.238;2023-01-19T08:10:40;100087.63;;;-2.14;100.00
32330;BME280;18807;52.434;13.238;2023-01-19T08:18:15;100083.28;;;-1.65;100.00
32330;BME280;18807;52.434;13.238;2023-01-19T08:25:49;100085.72;;;-1.34;100.00
32330;BME280;18807;52.434;13.238;2023-01-19T08:33:24;100098.69;;;-1.02;100.00
32330;BME280;18807;52.434;13.238;2023-01-19T08:40:58;100089.22;;;-0.46;100.00
32330;BME280;18807;52.434;13.238;2023-01-19T08:48:34;100097.81;;;0.07;100.00
32330;BME280;18807;52.434;13.238;2023-01-19T08:56:11;100100.06;;;0.77;100.00
32330;BME280;18807;52.434;13.238;2023-01-19T09:03:47;100097.84;;;1.07;96.77
32330;BME280;18807;52.434;13.238;2023-01-19T09:11:21;100108.66;;;0.73;94.36
32330;BME280;18807;52.434;13.238;2023-01-19T09:18:56;100111.41;;;0.97;96.69
32330;BME280;18807;52.434;13.238;2023-01-19T09:26:30;100110.84;;;1.24;93.50
32330;BME280;18807;52.434;13.238;2023-01-19T09:34:06;100116.34;;;1.30;92.72
32330;BME280;18807;52.434;13.238;2023-01-19T09:41:44;100116.84;;;1.22;91.96
32330;BME280;18807;52.434;13.238;2023-01-19T09:49:27;100111.59;;;1.22;90.52
32330;BME280;18807;52.434;13.238;2023-01-19T09:57:08;100112.97;;;1.12;90.90
32330;BME280;18807;52.434;13.238;2023-01-19T10:04:56;100118.97;;;0.89;93.30
32330;BME280;18807;52.434;13.238;2023-01-19T10:12:41;100103.66;;;0.79;93.63
32330;BME280;18807;52.434;13.238;2023-01-19T10:20:23;100097.69;;;0.83;94.66
32330;BME280;18807;52.434;13.238;2023-01-19T10:27:59;100099.19;;;0.77;94.15
32330;BME280;18807;52.434;13.238;2023-01-19T10:35:34;100105.00;;;0.70;95.50
32330;BME280;18807;52.434;13.238;2023-01-19T10:43:36;100097.94;;;0.69;97.32
32330;BME280;18807;52.434;13.238;2023-01-19T10:51:12;100082.69;;;0.81;97.53
32330;BME280;18807;52.434;13.238;2023-01-19T10:58:46;100080.06;;;0.81;98.22
32330;BME280;18807;52.434;13.238;2023-01-19T11:06:25;100071.91;;;0.95;98.09
32330;BME280;18807;52.434;13.238;2023-01-19T11:14:07;100069.47;;;1.00;99.28
32330;BME280;18807;52.434;13.238;2023-01-19T11:21:43;100065.75;;;1.15;98.47
32330;BME280;18807;52.434;13.238;2023-01-19T11:29:20;100062.72;;;1.27;99.07
32330;BME280;18807;52.434;13.238;2023-01-19T11:36:58;100055.38;;;1.40;99.84
32330;BME280;18807;52.434;13.238;2023-01-19T11:44:34;100036.72;;;1.56;99.01
32330;BME280;18807;52.434;13.238;2023-01-19T11:52:15;100030.59;;;1.79;98.54
32330;BME280;18807;52.434;13.238;2023-01-19T11:59:50;100026.16;;;2.02;95.28
32330;BME280;18807;52.434;13.238;2023-01-19T12:07:29;100037.78;;;2.07;94.51
32330;BME280;18807;52.434;13.238;2023-01-19T12:15:07;100043.09;;;2.08;93.11
32330;BME280;18807;52.434;13.238;2023-01-19T12:22:50;100044.41;;;1.97;93.63
32330;BME280;18807;52.434;13.238;2023-01-19T12:30:27;100042.41;;;2.14;92.93
32330;BME280;18807;52.434;13.238;2023-01-19T12:38:22;100049.97;;;2.29;90.62
32330;BME280;18807;52.434;13.238;2023-01-19T12:45:57;100052.75;;;2.33;90.90
32330;BME280;18807;52.434;13.238;2023-01-19T12:53:32;100056.47;;;2.38;90.24
32330;BME280;18807;52.434;13.238;2023-01-19T13:01:13;100056.34;;;2.35;91.49
32330;BME280;18807;52.434;13.238;2023-01-19T13:08:57;100052.97;;;2.39;89.34
32330;BME280;18807;52.434;13.238;2023-01-19T13:16:54;100061.78;;;2.40;89.04
32330;BME280;18807;52.434;13.238;2023-01-19T13:25:04;100082.75;;;2.37;89.35
32330;BME280;18807;52.434;13.238;2023-01-19T13:32:40;100078.41;;;2.37;89.94
32330;BME280;18807;52.434;13.238;2023-01-19T13:40:20;100085.28;;;2.34;90.47
32330;BME280;18807;52.434;13.238;2023-01-19T13:47:56;100094.09;;;2.34;90.34
32330;BME280;18807;52.434;13.238;2023-01-19T13:55:32;100095.59;;;2.28;91.05
32330;BME280;18807;52.434;13.238;2023-01-19T14:03:17;100096.38;;;2.25;92.48
32330;BME280;18807;52.434;13.238;2023-01-19T14:11:01;100102.22;;;2.17;92.93
32330;BME280;18807;52.434;13.238;2023-01-19T14:18:35;100116.59;;;2.02;94.38
32330;BME280;18807;52.434;13.238;2023-01-19T14:26:42;100123.16;;;1.91;95.86
32330;BME280;18807;52.434;13.238;2023-01-19T14:34:32;100141.91;;;1.77;98.08
32330;BME280;18807;52.434;13.238;2023-01-19T14:42:14;100137.31;;;1.71;99.13
32330;BME280;18807;52.434;13.238;2023-01-19T14:49:49;100143.19;;;1.64;100.00
32330;BME280;18807;52.434;13.238;2023-01-19T14:57:25;100142.88;;;1.57;100.00
32330;BME280;18807;52.434;13.238;2023-01-19T15:04:58;100140.00;;;1.51;100.00
32330;BME280;18807;52.434;13.238;2023-01-19T15:12:34;100151.25;;;1.48;100.00
32330;BME280;18807;52.434;13.238;2023-01-19T15:20:13;100153.69;;;1.42;100.00
32330;BME280;18807;52.434;13.238;2023-01-19T15:27:49;100160.34;;;1.34;100.00
32330;BME280;18807;52.434;13.238;2023-01-19T15:35:23;100162.00;;;1.32;100.00
32330;BME280;18807;52.434;13.238;2023-01-19T15:42:59;100162.59;;;1.25;100.00
32330;BME280;18807;52.434;13.238;2023-01-19T15:50:35;100170.47;;;1.25;100.00
32330;BME280;18807;52.434;13.238;2023-01-19T15:58:11;100159.84;;;1.22;100.00
32330;BME280;18807;52.434;13.238;2023-01-19T16:05:45;100164.31;;;1.25;100.00
32330;BME280;18807;52.434;13.238;2023-01-19T16:13:20;100161.75;;;1.26;100.00
32330;BME280;18807;52.434;13.238;2023-01-19T16:20:54;100165.16;;;1.24;100.00
32330;BME280;18807;52.434;13.238;2023-01-19T16:28:30;100167.72;;;1.22;100.00
32330;BME280;18807;52.434;13.238;2023-01-19T16:36:17;100173.88;;;1.23;100.00
32330;BME280;18807;52.434;13.238;2023-01-19T16:44:10;100178.19;;;1.21;100.00
32330;BME280;18807;52.434;13.238;2023-01-19T16:51:45;100181.72;;;1.21;100.00
32330;BME280;18807;52.434;13.238;2023-01-19T16:59:23;100181.66;;;1.20;100.00
32330;BME280;18807;52.434;13.238;2023-01-19T17:06:58;100187.09;;;1.24;100.00
32330;BME280;18807;52.434;13.238;2023-01-19T17:14:33;100188.75;;;1.22;100.00
32330;BME280;18807;52.434;13.238;2023-01-19T17:22:08;100189.88;;;1.27;100.00
32330;BME280;18807;52.434;13.238;2023-01-19T17:29:45;100195.19;;;1.29;100.00
32330;BME280;18807;52.434;13.238;2023-01-19T17:37:21;100195.19;;;1.29;100.00
32330;BME280;18807;52.434;13.238;2023-01-19T17:44:56;100197.88;;;1.30;100.00
32330;BME280;18807;52.434;13.238;2023-01-19T17:52:30;100204.09;;;1.32;100.00
32330;BME280;18807;52.434;13.238;2023-01-19T18:00:07;100209.34;;;1.32;100.00
32330;BME280;18807;52.434;13.238;2023-01-19T18:07:41;100217.38;;;1.35;100.00
32330;BME280;18807;52.434;13.238;2023-01-19T18:15:16;100212.09;;;1.35;100.00
32330;BME280;18807;52.434;13.238;2023-01-19T18:22:50;100231.44;;;1.36;100.00
32330;BME280;18807;52.434;13.238;2023-01-19T18:30:26;100237.59;;;1.36;100.00
32330;BME280;18807;52.434;13.238;2023-01-19T18:38:00;100236.81;;;1.39;100.00
32330;BME280;18807;52.434;13.238;2023-01-19T18:45:36;100251.69;;;1.38;100.00
32330;BME280;18807;52.434;13.238;2023-01-19T18:53:11;100251.63;;;1.37;100.00
32330;BME280;18807;52.434;13.238;2023-01-19T19:00:47;100266.88;;;1.44;100.00
32330;BME280;18807;52.434;13.238;2023-01-19T19:08:22;100268.72;;;1.46;100.00
32330;BME280;18807;52.434;13.238;2023-01-19T19:16:02;100276.66;;;1.48;100.00
32330;BME280;18807;52.434;13.238;2023-01-19T19:23:37;100277.69;;;1.51;100.00
32330;BME280;18807;52.434;13.238;2023-01-19T19:31:15;100289.13;;;1.52;100.00
32330;BME280;18807;52.434;13.238;2023-01-19T19:38:49;100292.66;;;1.52;100.00
32330;BME280;18807;52.434;13.238;2023-01-19T19:46:26;100298.53;;;1.47;100.00
32330;BME280;18807;52.434;13.238;2023-01-19T19:54:00;100325.88;;;1.50;100.00
32330;BME280;18807;52.434;13.238;2023-01-19T20:01:35;100320.63;;;1.50;100.00
32330;BME280;18807;52.434;13.238;2023-01-19T20:09:10;100326.78;;;1.51;100.00
32330;BME280;18807;52.434;13.238;2023-01-19T20:16:47;100329.34;;;1.49;100.00
32330;BME280;18807;52.434;13.238;2023-01-19T20:24:21;100341.88;;;1.55;100.00
32330;BME280;18807;52.434;13.238;2023-01-19T20:31:57;100349.00;;;1.57;100.00
32330;BME280;18807;52.434;13.238;2023-01-19T20:39:31;100354.97;;;1.53;100.00
32330;BME280;18807;52.434;13.238;2023-01-19T20:47:08;100363.69;;;1.52;100.00
32330;BME280;18807;52.434;13.238;2023-01-19T20:54:42;100379.56;;;1.54;100.00
32330;BME280;18807;52.434;13.238;2023-01-19T21:02:17;100384.94;;;1.57;100.00
32330;BME280;18807;52.434;13.238;2023-01-19T21:09:51;100391.03;;;1.56;100.00
32330;BME280;18807;52.434;13.238;2023-01-19T21:17:27;100405.16;;;1.58;100.00
32330;BME280;18807;52.434;13.238;2023-01-19T21:25:01;100408.56;;;1.55;100.00
32330;BME280;18807;52.434;13.238;2023-01-19T21:32:37;100413.13;;;1.59;100.00
32330;BME280;18807;52.434;13.238;2023-01-19T21:40:12;100430.78;;;1.62;100.00
32330;BME280;18807;52.434;13.238;2023-01-19T21:47:47;100438.72;;;1.63;100.00
32330;BME280;18807;52.434;13.238;2023-01-19T21:55:22;100452.03;;;1.66;100.00
32330;BME280;18807;52.434;13.238;2023-01-19T22:02:57;100452.09;;;1.68;100.00
32330;BME280;18807;52.434;13.238;2023-01-19T22:10:36;100473.38;;;1.72;100.00
32330;BME280;18807;52.434;13.238;2023-01-19T22:18:13;100472.56;;;1.73;100.00
32330;BME280;18807;52.434;13.238;2023-01-19T22:25:47;100484.94;;;1.76;100.00
32330;BME280;18807;52.434;13.238;2023-01-19T22:33:23;100494.69;;;1.78;100.00
32330;BME280;18807;52.434;13.238;2023-01-19T22:40:57;100505.38;;;1.81;100.00
32330;BME280;18807;52.434;13.238;2023-01-19T22:48:32;100507.19;;;1.82;100.00
32330;BME280;18807;52.434;13.238;2023-01-19T22:56:11;100512.56;;;1.85;100.00
32330;BME280;18807;52.434;13.238;2023-01-19T23:03:47;100512.50;;;1.84;100.00
32330;BME280;18807;52.434;13.238;2023-01-19T23:11:22;100517.81;;;1.85;100.00
32330;BME280;18807;52.434;13.238;2023-01-19T23:18:58;100529.25;;;1.86;100.00
32330;BME280;18807;52.434;13.238;2023-01-19T23:26:33;100535.44;;;1.86;100.00
32330;BME280;18807;52.434;13.238;2023-01-19T23:34:12;100545.06;;;1.86;100.00
32330;BME280;18807;52.434;13.238;2023-01-19T23:41:47;100550.25;;;1.84;100.00
32330;BME280;18807;52.434;13.238;2023-01-19T23:49:22;100534.53;;;1.86;100.00
32330;BME280;18807;52.434;13.238;2023-01-19T23:56:56;100545.13;;;1.87;100.00
